createdAt,value
2022-10-11T00:00:14.183Z,10.70
2022-10-11T00:02:41.326Z,11.10
2022-10-11T00:05:09.584Z,11.31
2022-10-11T00:07:39.823Z,11.29
2022-10-11T00:10:07.792Z,11.20
2022-10-11T00:12:35.862Z,11.09
2022-10-11T00:15:05.274Z,10.93
2022-10-11T00:17:33.440Z,10.78
2022-10-11T00:20:00.487Z,10.69
2022-10-11T00:22:27.535Z,10.61
2022-10-11T00:24:54.581Z,10.49
2022-10-11T00:27:21.562Z,10.29
2022-10-11T00:29:48.624Z,10.48
2022-10-11T00:32:15.928Z,10.89
2022-10-11T00:34:43.079Z,11.02
2022-10-11T00:37:10.132Z,11.03
2022-10-11T00:39:37.378Z,10.94
2022-10-11T00:42:04.630Z,10.79
2022-10-11T00:44:33.626Z,10.66
2022-10-11T00:47:05.184Z,10.57
2022-10-11T00:49:50.451Z,10.50
2022-10-11T00:52:31.612Z,10.31
2022-10-11T00:55:03.389Z,10.12
2022-10-11T00:57:35.251Z,10.50
2022-10-11T01:00:06.596Z,10.99
2022-10-11T01:02:33.644Z,11.15
2022-10-11T01:05:27.613Z,11.12
2022-10-11T01:07:48.731Z,11.00
2022-10-11T01:10:15.779Z,10.81
2022-10-11T01:13:08.734Z,10.68
2022-10-11T01:15:42.562Z,10.57
2022-10-11T01:18:28.019Z,10.56
2022-10-11T01:21:10.938Z,10.98
2022-10-11T01:23:52.015Z,11.42
2022-10-11T01:26:31.249Z,11.59
2022-10-11T01:29:07.307Z,11.50
2022-10-11T01:31:48.182Z,11.36
2022-10-11T01:34:24.364Z,11.23
2022-10-11T01:37:06.566Z,11.09
2022-10-11T01:39:40.876Z,10.83
2022-10-11T01:42:11.202Z,10.60
2022-10-11T01:44:41.784Z,10.39
2022-10-11T01:47:08.734Z,10.10
2022-10-11T01:49:35.809Z,10.28
2022-10-11T01:52:06.067Z,10.68
2022-10-11T01:55:08.002Z,10.93
2022-10-11T01:57:48.340Z,11.02
2022-10-11T02:00:19.880Z,10.86
2022-10-11T02:02:52.899Z,10.62
2022-10-11T02:05:47.496Z,10.45
2022-10-11T02:08:24.174Z,10.25
2022-10-11T02:11:02.432Z,10.11
2022-10-11T02:13:54.612Z,9.99
2022-10-11T02:16:23.705Z,9.78
2022-10-11T02:18:55.879Z,10.10
2022-10-11T02:21:24.874Z,10.56
2022-10-11T02:23:59.705Z,10.80
2022-10-11T02:26:30.905Z,10.76
2022-10-11T02:29:01.383Z,10.60
2022-10-11T02:31:30.977Z,10.36
2022-10-11T02:34:26.287Z,10.16
2022-10-11T02:37:01.631Z,10.00
2022-10-11T02:39:52.534Z,9.90
2022-10-11T02:42:27.026Z,9.75
2022-10-11T02:45:01.477Z,9.66
2022-10-11T02:47:31.291Z,9.55
2022-10-11T02:50:02.093Z,9.79
2022-10-11T02:52:29.071Z,10.17
2022-10-11T02:54:56.074Z,10.30
2022-10-11T02:57:22.998Z,10.30
2022-10-11T02:59:50.009Z,10.29
2022-10-11T03:02:17.003Z,10.15
2022-10-11T03:04:44.206Z,9.95
2022-10-11T03:07:11.766Z,9.76
2022-10-11T03:09:38.815Z,9.55
2022-10-11T03:12:05.863Z,9.47
2022-10-11T03:14:32.909Z,9.27
2022-10-11T03:17:17.280Z,9.36
2022-10-11T03:19:47.758Z,9.67
2022-10-11T03:22:15.212Z,9.96
2022-10-11T03:24:42.312Z,9.92
2022-10-11T03:27:09.295Z,9.83
2022-10-11T03:29:36.330Z,9.69
2022-10-11T03:32:03.847Z,9.53
2022-10-11T03:34:30.895Z,9.42
2022-10-11T03:36:57.919Z,9.29
2022-10-11T03:39:24.990Z,9.17
2022-10-11T03:41:52.038Z,8.96
2022-10-11T03:44:19.090Z,9.12
2022-10-11T03:46:46.132Z,9.52
2022-10-11T03:49:13.087Z,9.77
2022-10-11T03:51:40.125Z,9.84
2022-10-11T03:54:07.173Z,9.89
2022-10-11T03:56:34.215Z,9.91
2022-10-11T03:59:02.235Z,9.89
2022-10-11T04:01:29.396Z,9.79
2022-10-11T04:03:57.512Z,9.71
2022-10-11T04:06:24.662Z,9.51
2022-10-11T04:08:51.545Z,9.57
2022-10-11T04:11:18.601Z,9.92
2022-10-11T04:13:46.280Z,9.97
2022-10-11T04:16:13.282Z,9.72
2022-10-11T04:18:40.424Z,9.47
2022-10-11T04:21:07.766Z,9.31
2022-10-11T04:23:35.084Z,9.18
2022-10-11T04:26:07.589Z,9.12
2022-10-11T04:28:36.066Z,8.97
2022-10-11T04:31:05.268Z,8.79
2022-10-11T04:33:32.380Z,8.59
2022-10-11T04:35:59.301Z,8.84
2022-10-11T04:38:26.426Z,9.24
2022-10-11T04:40:53.388Z,9.40
2022-10-11T04:43:20.486Z,9.42
2022-10-11T04:45:47.502Z,9.41
2022-10-11T04:48:14.479Z,9.31
2022-10-11T04:50:41.450Z,9.14
2022-10-11T04:53:08.455Z,9.06
2022-10-11T04:55:35.520Z,9.00
2022-10-11T04:58:02.508Z,8.90
2022-10-11T05:00:29.567Z,8.80
2022-10-11T05:02:57.127Z,8.98
2022-10-11T05:05:24.059Z,9.43
2022-10-11T05:07:51.029Z,9.70
2022-10-11T05:10:18.106Z,9.76
2022-10-11T05:12:45.049Z,9.80
2022-10-11T05:15:12.130Z,9.75
2022-10-11T05:17:39.615Z,9.68
2022-10-11T05:20:07.311Z,9.61
2022-10-11T05:22:34.516Z,9.58
2022-10-11T05:25:01.587Z,9.55
2022-10-11T05:27:28.601Z,9.41
2022-10-11T05:29:55.626Z,9.70
2022-10-11T05:32:26.654Z,10.10
2022-10-11T05:34:54.847Z,10.37
2022-10-11T05:37:21.913Z,10.47
2022-10-11T05:39:48.864Z,10.47
2022-10-11T05:42:15.905Z,10.37
2022-10-11T05:44:42.865Z,10.23
2022-10-11T05:47:09.880Z,10.20
2022-10-11T05:49:37.017Z,10.19
2022-10-11T05:52:04.110Z,10.21
2022-10-11T05:54:31.395Z,10.12
2022-10-11T05:56:58.388Z,10.35
2022-10-11T05:59:25.541Z,10.86
2022-10-11T06:01:52.841Z,11.20
2022-10-11T06:04:19.939Z,11.31
2022-10-11T06:06:47.090Z,11.37
2022-10-11T06:09:14.049Z,11.43
2022-10-11T06:11:41.517Z,11.34
2022-10-11T06:14:09.535Z,11.30
2022-10-11T06:16:36.492Z,11.34
2022-10-11T06:19:04.734Z,11.31
2022-10-11T06:21:31.812Z,11.58
2022-10-11T06:24:01.957Z,12.12
2022-10-11T06:26:30.227Z,12.48
2022-10-11T06:28:57.777Z,12.63
2022-10-11T06:31:25.552Z,12.68
2022-10-11T06:33:52.493Z,12.64
2022-10-11T06:36:19.546Z,12.59
2022-10-11T06:38:46.574Z,12.55
2022-10-11T06:41:20.003Z,12.48
2022-10-11T06:43:49.562Z,12.40
2022-10-11T06:46:18.759Z,12.74
2022-10-11T06:48:47.300Z,13.25
2022-10-11T06:51:17.399Z,13.60
2022-10-11T06:53:49.968Z,13.79
2022-10-11T06:56:17.124Z,13.77
2022-10-11T06:58:44.173Z,13.71
2022-10-11T07:01:16.523Z,13.66
2022-10-11T07:03:43.629Z,13.61
2022-10-11T07:06:13.916Z,13.62
2022-10-11T07:08:41.167Z,13.66
2022-10-11T07:11:17.534Z,13.67
2022-10-11T07:13:52.978Z,13.65
2022-10-11T07:16:21.256Z,13.71
2022-10-11T07:18:55.908Z,13.77
2022-10-11T07:21:26.816Z,13.82
2022-10-11T07:23:53.833Z,13.90
2022-10-11T07:26:20.914Z,13.92
2022-10-11T07:28:48.217Z,14.18
2022-10-11T07:31:19.379Z,14.69
2022-10-11T07:33:47.139Z,15.06
2022-10-11T07:36:14.874Z,15.14
2022-10-11T07:38:43.839Z,15.10
2022-10-11T07:41:11.698Z,15.00
2022-10-11T07:43:39.253Z,15.02
2022-10-11T07:46:07.493Z,15.07
2022-10-11T07:48:36.363Z,15.06
2022-10-11T07:51:09.579Z,14.98
2022-10-11T07:53:45.882Z,14.87
2022-10-11T07:56:18.719Z,14.83
2022-10-11T07:58:51.397Z,14.84
2022-10-11T08:01:19.239Z,14.84
2022-10-11T08:03:47.275Z,14.85
2022-10-11T08:06:17.599Z,14.88
2022-10-11T08:08:44.646Z,14.87
2022-10-11T08:11:20.069Z,14.84
2022-10-11T08:13:47.139Z,14.78
2022-10-11T08:16:14.496Z,14.77
2022-10-11T08:20:12.371Z,14.31
2022-10-11T08:22:39.620Z,14.66
2022-10-11T08:25:07.141Z,14.71
2022-10-11T08:27:34.116Z,14.79
2022-10-11T08:30:01.091Z,14.74
2022-10-11T08:32:29.555Z,14.80
2022-10-11T08:34:57.115Z,14.84
2022-10-11T08:37:24.172Z,14.86
2022-10-11T08:39:51.209Z,14.89
2022-10-11T08:42:47.216Z,14.90
2022-10-11T08:45:29.541Z,14.91
2022-10-11T08:48:27.390Z,14.94
2022-10-11T08:50:54.672Z,14.93
2022-10-11T08:53:44.013Z,14.96
2022-10-11T08:56:14.125Z,14.93
2022-10-11T08:58:56.939Z,14.86
2022-10-11T09:01:27.323Z,14.90
2022-10-11T09:03:55.570Z,14.89
2022-10-11T09:06:31.720Z,14.87
2022-10-11T09:09:13.836Z,14.90
2022-10-11T09:11:49.973Z,14.93
2022-10-11T09:14:23.155Z,15.01
2022-10-11T09:17:25.664Z,15.01
2022-10-11T09:20:18.399Z,15.05
2022-10-11T09:22:57.646Z,15.11
2022-10-11T09:25:41.752Z,15.17
2022-10-11T09:28:31.407Z,15.19
2022-10-11T09:30:59.591Z,15.17
2022-10-11T09:33:34.373Z,15.20
2022-10-11T09:36:12.173Z,15.32
2022-10-11T09:38:48.568Z,15.43
2022-10-11T09:41:23.778Z,15.45
2022-10-11T09:43:52.794Z,15.43
2022-10-11T09:46:24.526Z,15.49
2022-10-11T09:48:54.752Z,15.53
2022-10-11T09:51:26.100Z,15.50
2022-10-11T09:54:00.303Z,15.57
2022-10-11T09:56:30.456Z,15.57
2022-10-11T09:59:10.284Z,15.63
2022-10-11T10:01:37.600Z,15.63
2022-10-11T10:04:14.471Z,15.69
2022-10-11T10:06:41.637Z,15.69
2022-10-11T10:09:41.199Z,15.71
2022-10-11T10:12:13.547Z,15.74
2022-10-11T10:14:41.823Z,15.86
2022-10-11T10:17:18.319Z,15.86
2022-10-11T10:19:50.617Z,15.88
2022-10-11T10:22:25.595Z,15.85
2022-10-11T10:24:54.133Z,15.84
2022-10-11T10:27:24.490Z,15.89
2022-10-11T10:30:13.426Z,15.97
2022-10-11T10:32:48.353Z,16.00
2022-10-11T10:35:31.316Z,16.02
2022-10-11T10:38:03.381Z,16.05
2022-10-11T10:40:48.665Z,16.05
2022-10-11T10:43:22.158Z,16.08
2022-10-11T10:46:17.978Z,16.03
2022-10-11T10:49:48.429Z,16.21
2022-10-11T10:51:50.890Z,16.27
2022-10-11T10:54:33.277Z,16.24
2022-10-11T10:57:04.136Z,16.24
2022-10-11T10:59:49.535Z,16.22
2022-10-11T11:02:39.529Z,16.20
2022-10-11T11:05:07.604Z,16.25
2022-10-11T11:07:47.480Z,16.37
2022-10-11T11:10:23.085Z,16.50
2022-10-11T11:12:56.399Z,16.58
2022-10-11T11:15:42.298Z,16.55
2022-10-11T13:47:15.927Z,16.44
2022-10-11T13:49:48.297Z,17.46
2022-10-11T13:52:18.389Z,17.48
2022-10-11T13:55:00.914Z,17.45
2022-10-11T13:57:34.289Z,17.48
2022-10-11T14:00:04.732Z,17.47
2022-10-11T14:02:39.623Z,17.44
2022-10-11T14:05:06.798Z,17.42
2022-10-11T14:07:38.682Z,17.42
2022-10-11T14:10:07.240Z,17.35
2022-10-11T14:12:39.869Z,17.28
2022-10-11T14:15:25.421Z,17.17
2022-10-11T14:17:52.484Z,17.20
2022-10-11T14:20:36.086Z,17.25
2022-10-11T14:23:03.321Z,17.48
2022-10-11T14:25:30.705Z,17.66
2022-10-11T14:27:58.404Z,17.86
2022-10-11T14:30:27.776Z,17.91
2022-10-11T14:32:57.111Z,17.88
2022-10-11T14:35:30.586Z,17.76
2022-10-11T14:37:58.168Z,17.64
2022-10-11T14:40:28.112Z,17.46
2022-10-11T14:42:55.395Z,17.27
2022-10-11T14:45:23.225Z,17.13
2022-10-11T14:47:51.025Z,17.02
2022-10-11T14:50:29.323Z,16.89
2022-10-11T14:52:56.621Z,16.76
2022-10-11T14:55:24.652Z,16.62
2022-10-11T14:57:51.954Z,16.50
2022-10-11T15:00:28.528Z,16.38
2022-10-11T15:02:55.957Z,16.27
2022-10-11T15:05:28.676Z,16.17
2022-10-11T15:07:58.298Z,16.06
2022-10-11T15:10:26.833Z,15.99
2022-10-11T15:12:55.604Z,15.89
2022-10-11T15:15:25.829Z,15.82
2022-10-11T15:17:58.236Z,15.75
2022-10-11T15:20:38.388Z,15.69
2022-10-11T15:23:07.940Z,15.61
2022-10-11T15:25:35.860Z,15.53
2022-10-11T15:28:02.799Z,15.41
2022-10-11T15:30:41.362Z,15.34
2022-10-11T15:33:09.467Z,15.28
2022-10-11T15:35:36.482Z,15.22
2022-10-11T15:38:03.906Z,15.19
2022-10-11T15:40:33.985Z,15.15
2022-10-11T15:43:02.036Z,15.09
2022-10-11T15:45:30.047Z,15.04
2022-10-11T15:47:57.454Z,15.04
2022-10-11T15:50:41.632Z,14.98
2022-10-11T15:53:14.920Z,14.88
2022-10-11T15:55:44.797Z,14.83
2022-10-11T15:58:36.809Z,14.80
2022-10-11T16:01:09.915Z,14.76
2022-10-11T16:03:37.056Z,14.72
2022-10-11T16:06:05.693Z,14.70
2022-10-11T16:08:34.288Z,14.64
2022-10-11T16:11:01.757Z,14.59
2022-10-11T16:13:28.742Z,14.56
2022-10-11T16:19:10.777Z,14.45
2022-10-11T16:21:37.851Z,14.42
2022-10-11T16:24:04.963Z,14.37
2022-10-11T16:26:32.128Z,14.35
2022-10-11T16:28:59.194Z,14.33
2022-10-11T16:31:26.737Z,14.33
2022-10-11T16:33:53.730Z,14.28
2022-10-11T16:36:31.916Z,14.22
2022-10-11T16:39:00.666Z,14.19
2022-10-11T16:41:28.111Z,14.17
2022-10-11T16:43:55.860Z,14.16
2022-10-11T16:46:23.357Z,14.10
2022-10-11T16:48:50.563Z,14.05
2022-10-11T16:51:17.524Z,14.04
2022-10-11T16:53:44.508Z,14.05
2022-10-11T16:56:12.716Z,14.03
2022-10-11T16:58:39.694Z,14.01
2022-10-11T17:01:11.372Z,13.99
2022-10-11T17:03:39.180Z,13.94
2022-10-11T17:06:07.986Z,13.93
2022-10-11T17:08:35.531Z,13.92
2022-10-11T17:11:03.473Z,13.88
2022-10-11T17:13:30.926Z,13.86
2022-10-11T17:15:58.310Z,13.86
2022-10-11T17:18:25.332Z,13.85
2022-10-11T17:21:05.009Z,13.85
2022-10-11T17:23:33.487Z,13.83
2022-10-11T17:26:10.766Z,13.81
2022-10-11T17:28:38.951Z,13.78
2022-10-11T17:31:08.160Z,13.79
2022-10-11T17:33:35.623Z,13.76
2022-10-11T17:36:02.915Z,13.73
2022-10-11T17:38:30.917Z,13.72
2022-10-11T17:41:05.936Z,13.73
2022-10-11T17:43:33.111Z,13.72
2022-10-11T17:46:05.274Z,13.70
2022-10-11T17:48:34.744Z,13.70
2022-10-11T17:51:09.797Z,13.69
2022-10-11T17:53:37.483Z,13.70
2022-10-11T17:56:16.809Z,13.71
2022-10-11T17:58:44.061Z,13.71
2022-10-11T18:01:14.539Z,13.71
2022-10-11T18:03:42.978Z,13.71
2022-10-11T18:06:13.432Z,13.70
2022-10-11T18:08:41.464Z,13.70
2022-10-11T18:11:14.428Z,13.69
2022-10-11T18:13:46.254Z,13.68
2022-10-11T18:16:16.624Z,13.67
2022-10-11T18:18:44.506Z,13.64
2022-10-11T18:21:12.573Z,13.62
2022-10-11T18:23:40.406Z,13.61
2022-10-11T18:26:15.191Z,13.63
2022-10-11T18:28:43.951Z,13.66
2022-10-11T18:31:15.538Z,13.65
2022-10-11T18:33:45.789Z,13.66
2022-10-11T18:36:15.672Z,13.64
2022-10-11T18:38:47.076Z,13.62
2022-10-11T18:41:16.608Z,13.63
2022-10-11T18:43:48.456Z,13.64
2022-10-11T18:46:21.657Z,13.64
2022-10-11T18:48:54.344Z,13.62
2022-10-11T18:51:22.583Z,13.58
2022-10-11T18:53:50.464Z,13.56
2022-10-11T18:56:20.795Z,13.59
2022-10-11T18:58:49.278Z,13.59
2022-10-11T19:01:19.563Z,13.57
2022-10-11T19:03:48.614Z,13.58
2022-10-11T19:06:18.642Z,13.57
2022-10-11T19:08:47.982Z,13.58
2022-10-11T19:11:16.096Z,13.56
2022-10-11T19:13:44.003Z,13.57
2022-10-11T19:16:13.942Z,13.54
2022-10-11T19:18:44.261Z,13.53
2022-10-11T19:21:13.473Z,13.51
2022-10-11T19:23:42.820Z,13.52
2022-10-11T19:26:21.959Z,13.53
2022-10-11T19:28:53.812Z,13.53
2022-10-11T19:31:20.859Z,13.51
2022-10-11T19:33:49.668Z,13.49
2022-10-11T19:36:17.285Z,13.47
2022-10-11T19:38:46.496Z,13.48
2022-10-11T19:41:14.966Z,13.51
2022-10-11T19:43:43.171Z,13.58
2022-10-11T19:46:20.281Z,13.59
2022-10-11T19:48:54.826Z,13.62
2022-10-11T19:51:24.108Z,13.59
2022-10-11T19:54:17.511Z,13.59
2022-10-11T19:56:44.853Z,13.59
2022-10-11T19:59:12.530Z,13.57
2022-10-11T20:01:40.966Z,13.59
2022-10-11T20:04:27.550Z,13.57
2022-10-11T20:06:58.549Z,13.61
2022-10-11T20:09:30.420Z,13.61
2022-10-11T20:11:58.252Z,13.59
2022-10-11T20:14:25.635Z,13.57
2022-10-11T20:16:53.032Z,13.58
2022-10-11T20:19:24.881Z,13.62
2022-10-11T20:21:54.957Z,13.64
2022-10-11T20:24:21.917Z,13.66
2022-10-11T20:26:48.946Z,13.67
2022-10-11T20:29:15.904Z,13.70
2022-10-11T20:31:43.040Z,13.72
2022-10-11T20:34:11.037Z,13.73
2022-10-11T20:36:38.299Z,13.78
2022-10-11T20:39:05.780Z,13.79
2022-10-11T20:41:37.212Z,13.84
2022-10-11T20:44:05.409Z,13.89
2022-10-11T20:46:35.023Z,13.96
2022-10-11T20:49:05.089Z,13.96
2022-10-11T20:51:34.729Z,14.08
2022-10-11T20:54:02.277Z,14.19
2022-10-11T20:56:30.373Z,14.28
2022-10-11T20:58:58.768Z,14.36
2022-10-11T21:01:38.193Z,14.49
2022-10-11T21:04:07.083Z,14.61
2022-10-11T21:06:34.494Z,14.69
2022-10-11T21:09:01.910Z,14.81
2022-10-11T21:11:33.630Z,14.90
2022-10-11T21:14:02.273Z,14.93
2022-10-11T21:16:30.039Z,14.96
2022-10-11T21:18:59.354Z,15.00
2022-10-11T21:21:27.636Z,15.08
2022-10-11T21:24:02.053Z,15.14
2022-10-11T21:26:30.772Z,15.19
2022-10-11T21:28:59.612Z,15.24
2022-10-11T21:31:31.261Z,15.28
2022-10-11T21:34:01.737Z,15.27
2022-10-11T21:36:28.877Z,15.31
2022-10-11T21:38:56.451Z,15.30
2022-10-11T21:41:30.325Z,15.34
2022-10-11T21:43:58.056Z,15.39
2022-10-11T21:47:04.826Z,15.41
2022-10-11T21:49:17.668Z,15.40
2022-10-11T21:51:45.239Z,15.38
2022-10-11T21:54:12.292Z,15.38
2022-10-11T21:56:39.532Z,15.40
2022-10-11T21:59:09.557Z,15.42
2022-10-11T22:01:40.519Z,15.43
2022-10-11T22:04:08.095Z,15.41
2022-10-11T22:06:36.131Z,15.40
2022-10-11T22:09:04.260Z,15.39
2022-10-11T22:11:31.472Z,15.41
2022-10-11T22:13:58.861Z,15.45
2022-10-11T22:16:25.905Z,15.43
2022-10-11T22:18:55.960Z,15.42
2022-10-11T22:21:24.334Z,15.43
2022-10-11T22:23:52.998Z,15.45
2022-10-11T22:26:22.651Z,15.39
2022-10-11T22:28:50.578Z,15.37
2022-10-11T22:31:19.712Z,15.33
2022-10-11T22:33:46.798Z,15.32
2022-10-11T22:36:16.770Z,15.30
2022-10-11T22:38:44.162Z,15.26
2022-10-11T22:41:11.662Z,15.29
2022-10-11T22:43:38.770Z,15.29
2022-10-11T22:46:06.242Z,15.26
2022-10-11T22:48:33.466Z,15.24
2022-10-11T22:51:01.055Z,15.27
2022-10-11T22:53:28.670Z,15.20
2022-10-11T22:55:55.628Z,15.24
2022-10-11T22:58:22.626Z,15.24
2022-10-11T23:00:49.721Z,15.27
2022-10-11T23:03:18.452Z,15.28
2022-10-11T23:05:55.384Z,15.31
2022-10-11T23:08:22.909Z,15.31
2022-10-11T23:10:49.982Z,15.32
2022-10-11T23:13:17.003Z,15.30
2022-10-11T23:15:44.182Z,15.22
2022-10-11T23:18:12.044Z,15.18
2022-10-11T23:20:40.017Z,15.13
2022-10-11T23:23:07.673Z,15.10
2022-10-11T23:25:34.722Z,15.09
2022-10-11T23:28:02.385Z,15.03
2022-10-11T23:30:30.355Z,14.98
2022-10-11T23:32:57.412Z,14.91
2022-10-11T23:35:24.483Z,14.85
2022-10-11T23:37:53.919Z,14.77
2022-10-11T23:40:20.995Z,14.69
2022-10-11T23:42:48.013Z,14.58
2022-10-11T23:45:15.301Z,14.49
2022-10-11T23:47:42.319Z,14.43
2022-10-11T23:50:09.491Z,14.36
2022-10-11T23:52:36.659Z,14.28
2022-10-11T23:55:04.290Z,14.19
2022-10-11T23:57:31.532Z,14.10
2022-10-11T23:59:58.553Z,14.02
